createdAt,value
2023-03-03T00:00:23.156Z,0
2023-03-03T00:01:23.117Z,0
2023-03-03T00:02:23.167Z,0
2023-03-03T00:03:23.198Z,0
2023-03-03T00:04:23.140Z,0
2023-03-03T00:05:23.139Z,0
2023-03-03T00:06:23.118Z,0
2023-03-03T00:07:23.242Z,0
2023-03-03T00:08:23.194Z,0
2023-03-03T00:09:23.149Z,0
2023-03-03T00:10:23.140Z,0
2023-03-03T00:11:23.145Z,0
2023-03-03T00:12:23.132Z,0
2023-03-03T00:13:23.132Z,0
2023-03-03T00:14:23.184Z,0
2023-03-03T00:15:23.137Z,0
2023-03-03T00:16:23.280Z,0
2023-03-03T00:17:23.121Z,0
2023-03-03T00:18:23.128Z,0
2023-03-03T00:19:23.140Z,0
2023-03-03T00:20:23.148Z,0
2023-03-03T00:21:23.126Z,0
2023-03-03T00:22:23.132Z,0
2023-03-03T00:23:23.138Z,0
2023-03-03T00:24:23.158Z,0
2023-03-03T00:25:23.136Z,0
2023-03-03T00:26:23.141Z,0
2023-03-03T00:27:23.134Z,0
2023-03-03T00:28:23.163Z,0
2023-03-03T00:29:23.145Z,0
2023-03-03T00:30:23.182Z,0
2023-03-03T00:31:23.200Z,0
2023-03-03T00:32:23.248Z,0
2023-03-03T00:33:23.162Z,0
2023-03-03T00:34:23.190Z,0
2023-03-03T00:35:23.333Z,0
2023-03-03T00:36:23.147Z,0
2023-03-03T00:37:23.138Z,0
2023-03-03T00:38:23.151Z,0
2023-03-03T00:39:23.163Z,0
2023-03-03T00:40:23.141Z,0
2023-03-03T00:41:23.147Z,0
2023-03-03T00:42:23.161Z,0
2023-03-03T00:43:23.138Z,0
2023-03-03T00:44:23.145Z,0
2023-03-03T00:45:23.159Z,0
2023-03-03T00:46:23.185Z,0
2023-03-03T00:47:23.156Z,0
2023-03-03T00:48:23.155Z,0
2023-03-03T00:49:23.141Z,0
2023-03-03T00:50:23.165Z,0
2023-03-03T00:51:23.142Z,0
2023-03-03T00:52:23.150Z,0
2023-03-03T00:53:23.147Z,0
2023-03-03T00:54:23.169Z,0
2023-03-03T00:55:23.142Z,0
2023-03-03T00:56:23.146Z,0
2023-03-03T00:57:23.145Z,0
2023-03-03T00:58:23.168Z,0
2023-03-03T00:59:23.146Z,0
2023-03-03T01:00:23.166Z,0
2023-03-03T01:01:23.209Z,0
2023-03-03T01:02:23.261Z,0
2023-03-03T01:03:23.189Z,0
2023-03-03T01:04:23.159Z,0
2023-03-03T01:05:23.164Z,0
2023-03-03T01:06:23.146Z,0
2023-03-03T01:07:23.155Z,0
2023-03-03T01:08:23.178Z,0
2023-03-03T01:09:23.156Z,0
2023-03-03T01:10:23.161Z,0
2023-03-03T01:11:23.143Z,0
2023-03-03T01:12:23.153Z,0
2023-03-03T01:13:23.174Z,0
2023-03-03T01:14:23.251Z,0
2023-03-03T01:15:23.156Z,0
2023-03-03T01:16:23.249Z,0
2023-03-03T01:17:23.164Z,0
2023-03-03T01:18:23.212Z,0
2023-03-03T01:19:23.171Z,0
2023-03-03T01:20:23.175Z,0
2023-03-03T01:21:23.173Z,0
2023-03-03T01:22:23.206Z,0
2023-03-03T01:23:23.192Z,0
2023-03-03T01:24:23.170Z,0
2023-03-03T01:25:23.174Z,0
2023-03-03T01:26:23.172Z,0
2023-03-03T01:27:23.170Z,0
2023-03-03T01:28:23.174Z,0
2023-03-03T01:29:23.177Z,0
2023-03-03T01:30:23.176Z,0
2023-03-03T01:31:23.259Z,0
2023-03-03T01:32:23.214Z,0
2023-03-03T01:33:23.172Z,0
2023-03-03T01:34:23.201Z,0
2023-03-03T01:35:23.198Z,0
2023-03-03T01:36:23.176Z,0
2023-03-03T01:37:23.190Z,0
2023-03-03T01:38:23.176Z,0
2023-03-03T01:39:23.211Z,0
2023-03-03T01:40:23.183Z,0
2023-03-03T01:41:23.185Z,0
2023-03-03T01:42:23.177Z,0
2023-03-03T01:43:23.173Z,0
2023-03-03T01:44:23.192Z,0
2023-03-03T01:45:23.183Z,0
2023-03-03T01:46:23.226Z,0
2023-03-03T01:47:23.187Z,0
2023-03-03T01:48:23.182Z,0
2023-03-03T01:49:23.193Z,0
2023-03-03T01:50:23.215Z,0
2023-03-03T01:51:23.198Z,0
2023-03-03T01:52:23.197Z,0
2023-03-03T01:53:23.197Z,0
2023-03-03T01:54:23.215Z,0
2023-03-03T01:55:23.193Z,0
2023-03-03T01:56:23.202Z,0
2023-03-03T01:57:23.204Z,0
2023-03-03T01:58:23.211Z,0
2023-03-03T01:59:23.207Z,0
2023-03-03T02:00:23.214Z,0
2023-03-03T02:01:23.277Z,0
2023-03-03T02:02:23.221Z,0
2023-03-03T02:03:23.213Z,0
2023-03-03T02:04:23.217Z,0
2023-03-03T02:05:23.218Z,0
2023-03-03T02:06:23.278Z,0
2023-03-03T02:07:23.226Z,0
2023-03-03T02:08:23.223Z,0
2023-03-03T02:09:23.216Z,0
2023-03-03T02:10:23.226Z,0
2023-03-03T02:11:23.250Z,0
2023-03-03T02:12:23.248Z,0
2023-03-03T02:13:23.246Z,0
2023-03-03T02:14:23.240Z,0
2023-03-03T02:15:23.243Z,0
2023-03-03T02:16:23.302Z,0
2023-03-03T02:17:23.229Z,0
2023-03-03T02:18:23.239Z,0
2023-03-03T02:19:23.229Z,0
2023-03-03T02:20:23.233Z,0
2023-03-03T02:21:23.238Z,0
2023-03-03T02:22:23.261Z,0
2023-03-03T02:23:23.265Z,0
2023-03-03T02:24:23.230Z,0
2023-03-03T02:25:23.242Z,0
2023-03-03T02:26:23.242Z,0
2023-03-03T02:27:23.277Z,0
2023-03-03T02:28:23.253Z,0
2023-03-03T02:29:23.256Z,0
2023-03-03T02:30:23.244Z,0
2023-03-03T02:31:23.276Z,0
2023-03-03T02:32:23.287Z,0
2023-03-03T02:33:23.272Z,0
2023-03-03T02:34:23.252Z,0
2023-03-03T02:35:23.274Z,0
2023-03-03T02:36:23.243Z,0
2023-03-03T02:37:23.253Z,0
2023-03-03T02:38:23.311Z,0
2023-03-03T02:39:23.280Z,0
2023-03-03T02:40:23.250Z,0
2023-03-03T02:41:23.255Z,0
2023-03-03T02:42:23.266Z,0
2023-03-03T02:43:23.268Z,0
2023-03-03T02:44:23.273Z,0
2023-03-03T02:45:23.301Z,0
2023-03-03T02:46:23.413Z,0
2023-03-03T02:47:23.253Z,0
2023-03-03T02:48:23.318Z,0
2023-03-03T02:49:23.256Z,0
2023-03-03T02:50:23.260Z,0
2023-03-03T02:51:23.256Z,0
2023-03-03T02:52:23.260Z,0
2023-03-03T02:53:23.268Z,0
2023-03-03T02:54:23.284Z,0
2023-03-03T02:55:23.265Z,0
2023-03-03T02:56:23.265Z,0
2023-03-03T02:57:23.254Z,0
2023-03-03T02:58:23.260Z,0
2023-03-03T02:59:23.263Z,0
2023-03-03T03:00:23.264Z,0
2023-03-03T03:01:23.388Z,0
2023-03-03T03:02:23.264Z,0
2023-03-03T03:03:23.290Z,0
2023-03-03T03:04:23.336Z,0
2023-03-03T03:05:23.312Z,0
2023-03-03T03:06:23.264Z,0
2023-03-03T03:07:23.299Z,0
2023-03-03T03:08:23.289Z,0
2023-03-03T03:09:23.268Z,0
2023-03-03T03:10:23.288Z,0
2023-03-03T03:11:23.289Z,0
2023-03-03T03:12:23.276Z,0
2023-03-03T03:13:23.269Z,0
2023-03-03T03:14:23.272Z,0
2023-03-03T03:15:23.320Z,0
2023-03-03T03:16:23.279Z,0
2023-03-03T03:17:23.274Z,0
2023-03-03T03:18:23.270Z,0
2023-03-03T03:19:23.286Z,0
2023-03-03T03:20:23.273Z,0
2023-03-03T03:21:23.283Z,0
2023-03-03T03:22:23.290Z,0
2023-03-03T03:23:23.277Z,0
2023-03-03T03:24:23.286Z,0
2023-03-03T03:25:23.309Z,0
2023-03-03T03:26:23.308Z,0
2023-03-03T03:27:23.290Z,0
2023-03-03T03:28:23.305Z,0
2023-03-03T03:29:23.319Z,0
2023-03-03T03:30:23.304Z,0
2023-03-03T03:31:23.300Z,0
2023-03-03T03:32:23.324Z,0
2023-03-03T03:33:23.300Z,0
2023-03-03T03:34:23.304Z,0
2023-03-03T03:35:23.354Z,0
2023-03-03T03:36:23.308Z,0
2023-03-03T03:37:23.305Z,0
2023-03-03T03:38:23.324Z,0
2023-03-03T03:39:23.298Z,0
2023-03-03T03:40:23.310Z,0
2023-03-03T03:41:23.316Z,0
2023-03-03T03:42:23.340Z,0
2023-03-03T03:43:23.322Z,0
2023-03-03T03:44:23.319Z,0
2023-03-03T03:45:23.309Z,0
2023-03-03T03:46:23.379Z,0
2023-03-03T03:47:23.328Z,0
2023-03-03T03:48:23.323Z,0
2023-03-03T03:49:23.317Z,0
2023-03-03T03:50:23.320Z,0
2023-03-03T03:51:23.322Z,0
2023-03-03T03:52:23.349Z,0
2023-03-03T03:53:23.333Z,0
2023-03-03T03:54:23.330Z,0
2023-03-03T03:55:23.326Z,0
2023-03-03T03:56:23.321Z,0
2023-03-03T03:57:25.636Z,0
2023-03-03T03:58:23.368Z,0
2023-03-03T03:59:23.381Z,0
2023-03-03T04:00:23.347Z,0
2023-03-03T04:01:23.350Z,0
2023-03-03T04:02:23.419Z,0
2023-03-03T04:03:23.536Z,0
2023-03-03T04:04:23.349Z,0
2023-03-03T04:05:23.358Z,0
2023-03-03T04:06:23.356Z,0
2023-03-03T04:07:23.359Z,0
2023-03-03T04:08:23.361Z,0
2023-03-03T04:09:23.348Z,0
2023-03-03T04:10:23.389Z,0
2023-03-03T04:11:23.355Z,0
2023-03-03T04:12:23.361Z,0
2023-03-03T04:13:23.368Z,0
2023-03-03T04:14:23.382Z,0
2023-03-03T04:15:23.368Z,0
2023-03-03T04:16:23.371Z,0
2023-03-03T04:17:23.367Z,0
2023-03-03T04:18:23.366Z,0
2023-03-03T04:19:23.380Z,0
2023-03-03T04:20:23.383Z,0
2023-03-03T04:21:23.374Z,0
2023-03-03T04:22:23.377Z,0
2023-03-03T04:23:23.377Z,0
2023-03-03T04:24:23.372Z,0
2023-03-03T04:25:23.442Z,0
2023-03-03T04:26:23.379Z,0
2023-03-03T04:27:23.370Z,0
2023-03-03T04:28:23.394Z,0
2023-03-03T04:29:23.421Z,0
2023-03-03T04:30:23.491Z,0
2023-03-03T04:31:23.424Z,0
2023-03-03T04:32:23.427Z,0
2023-03-03T04:33:23.386Z,0
2023-03-03T04:34:23.388Z,0
2023-03-03T04:35:23.437Z,0
2023-03-03T04:36:23.388Z,0
2023-03-03T04:37:23.385Z,0
2023-03-03T04:38:23.381Z,0
2023-03-03T04:39:23.427Z,0
2023-03-03T04:40:23.390Z,0
2023-03-03T04:41:23.402Z,0
2023-03-03T04:42:23.405Z,0
2023-03-03T04:43:23.407Z,0
2023-03-03T04:44:23.402Z,0
2023-03-03T04:45:23.401Z,0
2023-03-03T04:46:23.472Z,0
2023-03-03T04:47:23.419Z,0
2023-03-03T04:48:23.403Z,0
2023-03-03T04:49:23.392Z,0
2023-03-03T04:50:23.391Z,0
2023-03-03T04:51:23.397Z,0
2023-03-03T04:52:23.397Z,0
2023-03-03T04:53:23.391Z,0
2023-03-03T04:54:23.410Z,0
2023-03-03T04:55:23.405Z,0
2023-03-03T04:56:23.402Z,0
2023-03-03T04:57:23.410Z,0
2023-03-03T04:58:23.417Z,0
2023-03-03T04:59:23.405Z,0
2023-03-03T05:00:23.412Z,0
2023-03-03T05:01:23.429Z,0
2023-03-03T05:02:23.434Z,0
2023-03-03T05:03:23.409Z,0
2023-03-03T05:04:23.459Z,0
2023-03-03T05:05:23.411Z,0
2023-03-03T05:06:23.410Z,0
2023-03-03T05:07:23.410Z,0
2023-03-03T05:08:23.414Z,0
2023-03-03T05:09:23.406Z,0
2023-03-03T05:10:23.416Z,0
2023-03-03T05:11:23.414Z,0
2023-03-03T05:12:23.441Z,0
2023-03-03T05:13:23.439Z,0
2023-03-03T05:14:23.460Z,0
2023-03-03T05:15:23.416Z,0
2023-03-03T05:16:23.454Z,0
2023-03-03T05:17:23.422Z,0
2023-03-03T05:18:23.437Z,0
2023-03-03T05:19:23.431Z,0
2023-03-03T05:20:23.424Z,0
2023-03-03T05:21:23.454Z,0
2023-03-03T05:22:23.425Z,0
2023-03-03T05:23:23.421Z,0
2023-03-03T05:24:23.421Z,0
2023-03-03T05:25:23.434Z,0
2023-03-03T05:26:23.463Z,0
2023-03-03T05:27:23.422Z,0
2023-03-03T05:28:23.423Z,0
2023-03-03T05:29:23.439Z,0
2023-03-03T05:30:23.463Z,0
2023-03-03T05:31:23.497Z,0
2023-03-03T05:32:23.470Z,0
2023-03-03T05:33:23.427Z,0
2023-03-03T05:34:23.449Z,0
2023-03-03T05:35:23.452Z,0
2023-03-03T05:36:23.441Z,0
2023-03-03T05:37:23.436Z,0
2023-03-03T05:38:23.432Z,0
2023-03-03T05:39:23.444Z,0
2023-03-03T05:40:23.437Z,0
2023-03-03T05:41:23.440Z,0
2023-03-03T05:42:23.483Z,0
2023-03-03T05:43:23.452Z,0
2023-03-03T05:44:23.430Z,0
2023-03-03T05:45:23.446Z,0
2023-03-03T05:46:23.502Z,0
2023-03-03T05:47:23.432Z,0
2023-03-03T05:48:23.494Z,0
2023-03-03T05:49:23.444Z,0
2023-03-03T05:50:23.451Z,0
2023-03-03T05:51:23.538Z,0
2023-03-03T05:52:23.439Z,0
2023-03-03T05:53:23.434Z,0
2023-03-03T05:54:23.444Z,0
2023-03-03T05:55:23.438Z,0
2023-03-03T05:56:23.432Z,0
2023-03-03T05:57:23.439Z,0
2023-03-03T05:58:23.446Z,0
2023-03-03T05:59:23.448Z,0
2023-03-03T06:00:23.484Z,0
2023-03-03T06:01:23.441Z,0
2023-03-03T06:02:23.447Z,0
2023-03-03T06:03:23.496Z,0
2023-03-03T06:04:23.445Z,0
2023-03-03T06:05:23.447Z,0
2023-03-03T06:06:23.470Z,0
2023-03-03T06:07:23.471Z,0
2023-03-03T06:08:23.451Z,0
2023-03-03T06:09:23.455Z,0
2023-03-03T06:10:23.455Z,0
2023-03-03T06:11:23.458Z,0
2023-03-03T06:12:23.444Z,0
2023-03-03T06:13:23.472Z,0
2023-03-03T06:14:24.805Z,0
2023-03-03T06:15:23.471Z,0
2023-03-03T06:16:23.495Z,0
2023-03-03T06:17:23.451Z,0
2023-03-03T06:18:23.457Z,0
2023-03-03T06:19:23.581Z,0
2023-03-03T06:20:23.452Z,0
2023-03-03T06:21:23.458Z,0
2023-03-03T06:22:23.500Z,0
2023-03-03T06:23:23.453Z,0
2023-03-03T06:24:23.450Z,0
2023-03-03T06:25:23.469Z,0
2023-03-03T06:26:23.460Z,0
2023-03-03T06:27:23.468Z,0
2023-03-03T06:28:23.453Z,0
2023-03-03T06:29:23.446Z,0
2023-03-03T06:30:23.466Z,0
2023-03-03T06:31:23.500Z,0
2023-03-03T06:32:23.485Z,0
2023-03-03T06:33:23.494Z,0
2023-03-03T06:34:23.471Z,0
2023-03-03T06:35:23.461Z,0
2023-03-03T06:36:23.476Z,0
2023-03-03T06:37:23.474Z,0
2023-03-03T06:38:23.511Z,0
2023-03-03T06:39:23.483Z,0
2023-03-03T06:40:23.470Z,0
2023-03-03T06:41:23.465Z,0
2023-03-03T06:42:23.461Z,0
2023-03-03T06:43:23.529Z,0
2023-03-03T06:44:23.454Z,0
2023-03-03T06:45:23.466Z,0
2023-03-03T06:46:23.472Z,0
2023-03-03T06:47:23.526Z,0
2023-03-03T06:48:23.475Z,0
2023-03-03T06:49:23.481Z,0
2023-03-03T06:50:23.475Z,0
2023-03-03T06:51:23.469Z,0
2023-03-03T06:52:23.485Z,0
2023-03-03T06:53:23.496Z,0
2023-03-03T06:54:26.175Z,0
2023-03-03T06:55:23.474Z,0
2023-03-03T06:56:23.507Z,0
2023-03-03T06:57:23.485Z,0
2023-03-03T06:58:23.473Z,0
2023-03-03T06:59:23.482Z,0
2023-03-03T07:00:23.476Z,0
2023-03-03T07:01:23.592Z,0
2023-03-03T07:02:23.479Z,0
2023-03-03T07:03:23.490Z,0
2023-03-03T07:04:23.559Z,0
2023-03-03T07:05:23.488Z,0
2023-03-03T07:06:23.509Z,0
2023-03-03T07:07:23.499Z,0
2023-03-03T07:08:23.492Z,0
2023-03-03T07:09:23.495Z,0
2023-03-03T07:10:23.563Z,0
2023-03-03T07:11:23.509Z,0
2023-03-03T07:12:23.525Z,0
2023-03-03T07:13:23.517Z,0
2023-03-03T07:14:23.541Z,0
2023-03-03T07:15:23.530Z,0
2023-03-03T07:16:23.519Z,0
2023-03-03T07:17:23.516Z,0
2023-03-03T07:18:23.578Z,0
2023-03-03T07:19:23.522Z,0
2023-03-03T07:20:23.525Z,0
2023-03-03T07:21:23.536Z,0
2023-03-03T07:22:23.548Z,0
2023-03-03T07:23:23.522Z,0
2023-03-03T07:24:23.523Z,0
2023-03-03T07:25:23.525Z,0
2023-03-03T07:26:23.554Z,0
2023-03-03T07:27:23.541Z,0
2023-03-03T07:28:23.550Z,0
2023-03-03T07:29:23.564Z,0
2023-03-03T07:30:23.543Z,0
2023-03-03T07:31:23.535Z,0
2023-03-03T07:32:23.576Z,0
2023-03-03T07:33:23.543Z,0
2023-03-03T07:34:23.577Z,0
2023-03-03T07:35:23.591Z,0
2023-03-03T07:36:23.544Z,0
2023-03-03T07:37:23.542Z,0
2023-03-03T07:38:23.556Z,0
2023-03-03T07:39:23.545Z,0
2023-03-03T07:40:23.546Z,0
2023-03-03T07:41:23.560Z,0
2023-03-03T07:42:23.624Z,0
2023-03-03T07:43:23.578Z,0
2023-03-03T07:44:23.579Z,0
2023-03-03T07:45:23.573Z,0
2023-03-03T07:46:23.676Z,0
2023-03-03T07:47:23.568Z,0
2023-03-03T07:48:23.575Z,0
2023-03-03T07:49:23.584Z,0
2023-03-03T07:50:23.621Z,0
2023-03-03T07:51:23.569Z,0
2023-03-03T07:52:23.584Z,0
2023-03-03T07:53:23.585Z,0
2023-03-03T07:54:23.572Z,0
2023-03-03T07:55:23.563Z,0
2023-03-03T07:56:23.614Z,0
2023-03-03T07:57:23.574Z,0
2023-03-03T07:58:23.631Z,0
2023-03-03T07:59:23.585Z,0
2023-03-03T08:00:23.623Z,0
2023-03-03T08:01:23.570Z,0
2023-03-03T08:02:23.574Z,0
2023-03-03T08:03:23.579Z,0
2023-03-03T08:04:23.678Z,0
2023-03-03T08:05:23.716Z,0
2023-03-03T08:06:23.605Z,0
2023-03-03T08:07:23.604Z,0
2023-03-03T08:08:23.585Z,0
2023-03-03T08:09:23.589Z,0
2023-03-03T08:10:23.676Z,0
2023-03-03T08:11:23.610Z,0
2023-03-03T08:12:23.578Z,0
2023-03-03T08:13:23.587Z,0
2023-03-03T08:14:23.599Z,0
2023-03-03T08:15:23.603Z,0
2023-03-03T08:16:23.658Z,0
2023-03-03T08:17:23.577Z,0
2023-03-03T08:18:23.601Z,0
2023-03-03T08:19:23.566Z,0
2023-03-03T08:20:23.587Z,0
2023-03-03T08:21:23.580Z,0
2023-03-03T08:22:23.578Z,0
2023-03-03T08:23:23.588Z,0
2023-03-03T08:24:23.603Z,0
2023-03-03T08:25:23.594Z,0
2023-03-03T08:26:23.595Z,0
2023-03-03T08:27:23.579Z,0
2023-03-03T08:28:23.595Z,0
2023-03-03T08:29:23.604Z,0
2023-03-03T08:30:23.614Z,0
2023-03-03T08:31:38.613Z,0
2023-03-03T08:32:23.690Z,1.9000000000000001
2023-03-03T08:33:23.623Z,3.8000000000000003
2023-03-03T08:34:23.580Z,3.5
2023-03-03T08:35:23.624Z,0
2023-03-03T08:36:23.608Z,2.4000000000000004
2023-03-03T08:37:23.588Z,0
2023-03-03T08:38:23.594Z,0
2023-03-03T08:39:23.632Z,0
2023-03-03T08:40:23.612Z,0
2023-03-03T08:41:23.590Z,0
2023-03-03T08:42:23.596Z,0
2023-03-03T08:43:23.588Z,0
2023-03-03T08:44:23.651Z,0
2023-03-03T08:45:23.590Z,0
2023-03-03T08:46:23.671Z,0
2023-03-03T08:47:23.590Z,0
2023-03-03T08:48:23.605Z,0
2023-03-03T08:49:23.588Z,0
2023-03-03T08:50:23.591Z,0
2023-03-03T08:51:23.593Z,0
2023-03-03T08:52:23.598Z,0
2023-03-03T08:53:23.594Z,0
2023-03-03T08:54:23.593Z,0
2023-03-03T08:55:23.606Z,0
2023-03-03T08:56:23.614Z,0
2023-03-03T08:57:23.616Z,0
2023-03-03T08:58:30.557Z,0
2023-03-03T08:59:23.617Z,0
2023-03-03T09:00:23.601Z,0
2023-03-03T09:01:23.641Z,0
2023-03-03T09:02:23.636Z,0
2023-03-03T09:03:23.610Z,0
2023-03-03T09:04:23.654Z,0
2023-03-03T09:05:23.606Z,0
2023-03-03T09:06:23.606Z,0
2023-03-03T09:07:23.618Z,0
2023-03-03T09:08:23.612Z,0
2023-03-03T09:09:23.640Z,0
2023-03-03T09:10:23.614Z,0
2023-03-03T09:11:23.608Z,0
2023-03-03T09:12:23.616Z,0
2023-03-03T09:13:23.656Z,0
2023-03-03T09:14:23.610Z,0
2023-03-03T09:15:23.599Z,0
2023-03-03T09:16:23.657Z,0
2023-03-03T09:17:23.620Z,0
2023-03-03T09:18:23.641Z,0
2023-03-03T09:19:23.648Z,0
2023-03-03T09:20:23.641Z,0
2023-03-03T09:21:23.635Z,0
2023-03-03T09:22:23.631Z,0
2023-03-03T09:23:23.621Z,0
2023-03-03T09:24:23.620Z,0
2023-03-03T09:25:23.608Z,0
2023-03-03T09:26:23.631Z,0
2023-03-03T09:27:23.625Z,0
2023-03-03T09:28:23.636Z,0
2023-03-03T09:29:23.619Z,0
2023-03-03T09:30:23.813Z,0
2023-03-03T09:31:23.652Z,0
2023-03-03T09:32:23.712Z,0
2023-03-03T09:33:23.659Z,0
2023-03-03T09:34:23.678Z,0
2023-03-03T09:35:23.693Z,0
2023-03-03T09:36:23.637Z,0
2023-03-03T09:37:23.643Z,0
2023-03-03T09:38:23.642Z,0
2023-03-03T09:39:23.642Z,0
2023-03-03T09:40:23.703Z,0
2023-03-03T09:41:23.649Z,0
2023-03-03T09:42:23.638Z,0
2023-03-03T09:43:23.646Z,0
2023-03-03T09:44:23.634Z,0
2023-03-03T09:45:23.652Z,0
2023-03-03T09:46:23.746Z,0
2023-03-03T09:47:23.644Z,0
2023-03-03T09:48:23.641Z,0
2023-03-03T09:49:26.119Z,0
2023-03-03T09:50:23.791Z,0
2023-03-03T09:51:23.669Z,0
2023-03-03T09:52:23.678Z,0
2023-03-03T09:53:23.665Z,0
2023-03-03T09:54:23.658Z,0
2023-03-03T09:55:25.330Z,0
2023-03-03T09:56:23.643Z,0
2023-03-03T09:57:23.668Z,0
2023-03-03T09:58:23.670Z,0
2023-03-03T09:59:23.653Z,0
2023-03-03T10:00:23.686Z,0
2023-03-03T10:01:23.657Z,0
2023-03-03T10:02:23.680Z,0
2023-03-03T10:03:23.726Z,0
2023-03-03T10:04:23.721Z,0
2023-03-03T10:05:23.664Z,0
2023-03-03T10:06:23.682Z,0
2023-03-03T10:07:23.665Z,0
2023-03-03T10:08:23.670Z,0
2023-03-03T10:09:23.679Z,0
2023-03-03T10:10:23.655Z,0
2023-03-03T10:11:23.658Z,0
2023-03-03T10:12:23.688Z,0
2023-03-03T10:13:23.664Z,0
2023-03-03T10:14:23.671Z,0
2023-03-03T10:15:23.688Z,0
2023-03-03T10:16:23.764Z,0
2023-03-03T10:17:23.665Z,0
2023-03-03T10:18:23.677Z,0
2023-03-03T10:19:23.665Z,0
2023-03-03T10:20:23.689Z,0
2023-03-03T10:21:23.661Z,0
2023-03-03T10:22:23.698Z,0
2023-03-03T10:23:23.665Z,0
2023-03-03T10:24:23.686Z,0
2023-03-03T10:25:23.685Z,0
2023-03-03T10:26:34.788Z,0
2023-03-03T10:27:23.670Z,0
2023-03-03T10:28:23.691Z,0
2023-03-03T10:29:23.724Z,0
2023-03-03T10:30:37.212Z,0
2023-03-03T10:31:28.182Z,0
2023-03-03T10:32:23.937Z,0
2023-03-03T10:33:23.928Z,0
2023-03-03T10:34:23.676Z,0
2023-03-03T10:35:23.714Z,0
2023-03-03T10:36:23.835Z,0
2023-03-03T10:37:23.697Z,0
2023-03-03T10:38:23.694Z,0
2023-03-03T10:39:23.685Z,3.8000000000000003
2023-03-03T10:40:23.679Z,3.2
2023-03-03T10:41:23.692Z,4.6000000000000005
2023-03-03T10:42:23.694Z,3.1
2023-03-03T10:43:31.609Z,2.4000000000000004
2023-03-03T10:44:23.672Z,1.2000000000000002
2023-03-03T10:45:23.681Z,0
2023-03-03T10:46:23.684Z,0.7000000000000001
2023-03-03T10:47:23.676Z,0.7000000000000001
2023-03-03T10:48:23.690Z,1.6
2023-03-03T10:49:23.705Z,2.2
2023-03-03T10:50:23.698Z,0
2023-03-03T10:51:23.686Z,0
2023-03-03T10:52:23.680Z,0
2023-03-03T10:53:23.684Z,0
2023-03-03T10:54:23.737Z,0
2023-03-03T10:55:23.676Z,0
2023-03-03T10:56:23.689Z,1.1
2023-03-03T10:57:23.697Z,0
2023-03-03T10:58:23.806Z,0
2023-03-03T10:59:23.681Z,0
2023-03-03T11:00:23.680Z,0
2023-03-03T11:01:24.614Z,2
2023-03-03T11:02:23.692Z,2.1
2023-03-03T11:03:23.702Z,0
2023-03-03T11:04:23.754Z,0
2023-03-03T11:05:23.686Z,0
2023-03-03T11:06:23.730Z,0
2023-03-03T11:07:23.691Z,0
2023-03-03T11:08:23.693Z,0
2023-03-03T11:09:23.711Z,0
2023-03-03T11:10:23.712Z,0
2023-03-03T11:11:23.675Z,0
2023-03-03T11:12:23.704Z,0
2023-03-03T11:13:24.042Z,0
2023-03-03T11:14:23.699Z,0
2023-03-03T11:15:23.689Z,0
2023-03-03T11:16:23.727Z,4.5
2023-03-03T11:17:23.691Z,2.4000000000000004
2023-03-03T11:18:25.688Z,2.5
2023-03-03T11:19:23.693Z,1.2000000000000002
2023-03-03T11:20:23.689Z,0
2023-03-03T11:21:23.727Z,1.5
2023-03-03T11:22:23.693Z,0
2023-03-03T11:23:23.686Z,0
2023-03-03T11:24:25.173Z,2.4000000000000004
2023-03-03T11:25:23.733Z,4
2023-03-03T11:26:23.708Z,4.2
2023-03-03T11:27:23.711Z,3.2
2023-03-03T11:28:23.713Z,2.1
2023-03-03T11:29:23.703Z,1.6
2023-03-03T11:30:23.703Z,1.4000000000000001
2023-03-03T11:31:25.119Z,0
2023-03-03T11:32:23.778Z,0
2023-03-03T11:33:23.715Z,0
2023-03-03T11:34:23.712Z,0
2023-03-03T11:35:23.840Z,1.9000000000000001
2023-03-03T11:36:23.744Z,0
2023-03-03T11:37:23.738Z,2.7
2023-03-03T11:38:23.717Z,4.6000000000000005
2023-03-03T11:39:23.759Z,3.1
2023-03-03T11:40:23.727Z,1.3
2023-03-03T11:41:23.720Z,1
2023-03-03T11:42:23.919Z,0
2023-03-03T11:43:35.961Z,1.8
2023-03-03T11:44:23.734Z,0.5
2023-03-03T11:45:23.719Z,0
2023-03-03T11:46:23.780Z,0.7000000000000001
2023-03-03T11:47:23.739Z,1.8
2023-03-03T11:48:23.739Z,0.8
2023-03-03T11:49:23.741Z,1.2000000000000002
2023-03-03T11:50:23.739Z,0
2023-03-03T11:51:23.743Z,0
2023-03-03T11:52:23.736Z,2.4000000000000004
2023-03-03T11:53:23.744Z,3.8000000000000003
2023-03-03T11:54:23.724Z,3.8000000000000003
2023-03-03T11:55:24.013Z,2.2
2023-03-03T11:56:23.752Z,0.8
2023-03-03T11:57:23.734Z,1.1
2023-03-03T11:58:23.751Z,0
2023-03-03T11:59:23.730Z,6.9
2023-03-03T12:00:23.741Z,5.4
2023-03-03T12:01:23.733Z,2.5
2023-03-03T12:02:23.819Z,8.1
2023-03-03T12:03:23.744Z,4.7
2023-03-03T12:04:23.751Z,3.7
2023-03-03T12:05:23.779Z,3.7
2023-03-03T12:06:23.751Z,2.3000000000000003
2023-03-03T12:07:23.729Z,1.5
2023-03-03T12:08:23.733Z,3.3000000000000003
2023-03-03T12:09:23.731Z,2.7
2023-03-03T12:10:23.740Z,4.1000000000000005
2023-03-03T12:11:23.745Z,3.1
2023-03-03T12:12:23.767Z,4
2023-03-03T12:13:23.753Z,2.5
2023-03-03T12:14:23.757Z,3.9000000000000004
2023-03-03T12:15:23.749Z,3
2023-03-03T12:16:23.840Z,5.1000000000000005
2023-03-03T12:17:23.747Z,3
2023-03-03T12:18:23.757Z,3.1
2023-03-03T12:19:23.742Z,5.4
2023-03-03T12:20:23.760Z,4.3
2023-03-03T12:21:23.763Z,4.2
2023-03-03T12:22:23.772Z,4.7
2023-03-03T12:23:23.752Z,1.8
2023-03-03T12:24:23.751Z,4.9
2023-03-03T12:25:23.757Z,2.4000000000000004
2023-03-03T12:26:23.748Z,1.9000000000000001
2023-03-03T12:27:23.751Z,5.1000000000000005
2023-03-03T12:28:23.753Z,5.5
2023-03-03T12:29:23.759Z,2.6
2023-03-03T12:30:23.779Z,0
2023-03-03T12:31:23.858Z,3.9000000000000004
2023-03-03T12:32:23.828Z,5.9
2023-03-03T12:33:23.772Z,3.8000000000000003
2023-03-03T12:34:23.772Z,2.8000000000000003
2023-03-03T12:35:23.822Z,3.5
2023-03-03T12:36:23.767Z,4.6000000000000005
2023-03-03T12:37:23.783Z,4.5
2023-03-03T12:38:23.764Z,5.800000000000001
2023-03-03T12:39:33.866Z,4.4
2023-03-03T12:40:23.767Z,4
2023-03-03T12:41:23.768Z,2.9000000000000004
2023-03-03T12:42:23.771Z,4.9
2023-03-03T12:43:23.766Z,1.3
2023-03-03T12:44:23.777Z,0
2023-03-03T12:45:23.776Z,4
2023-03-03T12:46:28.440Z,1.5
2023-03-03T12:47:23.793Z,2.6
2023-03-03T12:48:23.775Z,1
2023-03-03T12:49:23.780Z,0
2023-03-03T12:50:23.809Z,3.6
2023-03-03T12:51:23.788Z,2.3000000000000003
2023-03-03T12:52:23.791Z,1
2023-03-03T12:53:23.776Z,5.2
2023-03-03T12:54:23.777Z,3.1
2023-03-03T12:55:23.803Z,1.1
2023-03-03T12:56:23.788Z,0
2023-03-03T12:57:23.769Z,0.4
2023-03-03T12:58:23.788Z,2.5
2023-03-03T12:59:23.792Z,4.7
2023-03-03T13:00:23.802Z,3.1
2023-03-03T13:01:23.801Z,2.8000000000000003
2023-03-03T13:02:23.810Z,4.6000000000000005
2023-03-03T13:03:30.395Z,3.8000000000000003
2023-03-03T13:04:23.848Z,5
2023-03-03T13:05:23.801Z,2.1
2023-03-03T13:06:23.801Z,2.1
2023-03-03T13:07:23.802Z,2.8000000000000003
2023-03-03T13:08:23.798Z,6.1000000000000005
2023-03-03T13:09:23.837Z,1.2000000000000002
2023-03-03T13:10:23.807Z,5
2023-03-03T13:11:23.803Z,2.1
2023-03-03T13:12:23.803Z,1.8
2023-03-03T13:13:23.852Z,2
2023-03-03T13:14:23.801Z,1.7000000000000002
2023-03-03T13:15:31.585Z,2.2
2023-03-03T13:16:29.122Z,0
2023-03-03T13:17:23.829Z,3.4000000000000004
2023-03-03T13:18:23.828Z,4.800000000000001
2023-03-03T13:19:23.800Z,0
2023-03-03T13:20:23.824Z,0
2023-03-03T13:21:23.809Z,4.9
2023-03-03T13:22:23.823Z,2.9000000000000004
2023-03-03T13:23:23.810Z,2.2
2023-03-03T13:24:23.810Z,0
2023-03-03T13:25:23.911Z,4.6000000000000005
2023-03-03T13:26:23.887Z,3.6
2023-03-03T13:27:23.852Z,0
2023-03-03T13:28:23.821Z,1.3
2023-03-03T13:29:23.826Z,4.2
2023-03-03T13:30:23.855Z,4.3
2023-03-03T13:31:23.823Z,1.2000000000000002
2023-03-03T13:32:23.879Z,3.6
2023-03-03T13:33:23.813Z,1.8
2023-03-03T13:34:23.841Z,0
2023-03-03T13:35:23.839Z,0
2023-03-03T13:36:23.818Z,3.3000000000000003
2023-03-03T13:37:23.817Z,1.1
2023-03-03T13:38:23.871Z,2.3000000000000003
2023-03-03T13:39:23.847Z,5.4
2023-03-03T13:40:23.836Z,0
2023-03-03T13:41:23.835Z,0
2023-03-03T13:42:23.837Z,2.4000000000000004
2023-03-03T13:43:23.833Z,2.6
2023-03-03T13:44:23.841Z,1.2000000000000002
2023-03-03T13:45:23.961Z,7.300000000000001
2023-03-03T13:46:23.843Z,6.800000000000001
2023-03-03T13:47:23.833Z,7.2
2023-03-03T13:48:23.841Z,0
2023-03-03T13:49:23.840Z,3.9000000000000004
2023-03-03T13:50:23.870Z,4.6000000000000005
2023-03-03T13:51:23.936Z,8.1
2023-03-03T13:52:23.849Z,3.4000000000000004
2023-03-03T13:53:23.828Z,3.7
2023-03-03T13:54:23.854Z,10.100000000000001
2023-03-03T13:55:23.848Z,5.5
2023-03-03T13:56:23.871Z,4.6000000000000005
2023-03-03T13:57:23.849Z,1.2000000000000002
2023-03-03T13:58:23.856Z,5.1000000000000005
2023-03-03T13:59:23.851Z,0.8
2023-03-03T14:00:23.851Z,8.1
2023-03-03T14:01:23.956Z,5.6000000000000005
2023-03-03T14:02:23.860Z,5.6000000000000005